sensor_id;sensor_type;location;lat;lon;timestamp;pressure;altitude;pressure_sealevel;temperature;humidity
14295;BME280;7231;59.370;18.016;2023-01-26T00:01:26;101249.31;;;4.49;100.00
14295;BME280;7231;59.370;18.016;2023-01-26T00:03:55;101204.53;;;4.23;100.00
14295;BME280;7231;59.370;18.016;2023-01-26T00:06:24;101247.50;;;4.48;100.00
14295;BME280;7231;59.370;18.016;2023-01-26T00:08:54;101245.72;;;4.47;100.00
14295;BME280;7231;59.370;18.016;2023-01-26T00:11:23;101249.22;;;4.47;100.00
14295;BME280;7231;59.370;18.016;2023-01-26T00:13:52;101225.03;;;4.34;100.00
14295;BME280;7231;59.370;18.016;2023-01-26T00:16:22;101251.72;;;4.46;100.00
14295;BME280;7231;59.370;18.016;2023-01-26T00:18:50;101241.34;;;4.46;100.00
14295;BME280;7231;59.370;18.016;2023-01-26T00:21:20;101243.13;;;4.47;100.00
14295;BME280;7231;59.370;18.016;2023-01-26T00:23:49;101236.78;;;4.42;100.00
14295;BME280;7231;59.370;18.016;2023-01-26T00:26:19;101258.63;;;4.45;100.00
14295;BME280;7231;59.370;18.016;2023-01-26T00:28:48;101245.28;;;4.39;100.00
14295;BME280;7231;59.370;18.016;2023-01-26T00:31:18;101260.22;;;4.43;100.00
14295;BME280;7231;59.370;18.016;2023-01-26T00:33:49;101246.78;;;4.36;100.00
14295;BME280;7231;59.370;18.016;2023-01-26T00:36:17;101260.13;;;4.42;100.00
14295;BME280;7231;59.370;18.016;2023-01-26T00:38:46;101254.03;;;4.41;100.00
14295;BME280;7231;59.370;18.016;2023-01-26T00:41:13;101242.84;;;4.42;100.00
14295;BME280;7231;59.370;18.016;2023-01-26T00:43:55;101251.44;;;4.41;100.00
14295;BME280;7231;59.370;18.016;2023-01-26T00:46:23;101257.53;;;4.42;100.00
14295;BME280;7231;59.370;18.016;2023-01-26T00:48:53;101260.84;;;4.39;100.00
14295;BME280;7231;59.370;18.016;2023-01-26T00:51:21;101248.84;;;4.27;100.00
14295;BME280;7231;59.370;18.016;2023-01-26T00:53:49;101253.78;;;4.37;100.00
14295;BME280;7231;59.370;18.016;2023-01-26T00:56:17;101256.38;;;4.37;100.00
14295;BME280;7231;59.370;18.016;2023-01-26T00:58:45;101259.78;;;4.36;100.00
14295;BME280;7231;59.370;18.016;2023-01-26T01:01:13;101241.59;;;4.21;100.00
14295;BME280;7231;59.370;18.016;2023-01-26T01:03:41;101260.56;;;4.35;100.00
14295;BME280;7231;59.370;18.016;2023-01-26T01:06:10;101253.69;;;4.35;100.00
14295;BME280;7231;59.370;18.016;2023-01-26T01:08:38;101254.47;;;4.34;100.00
14295;BME280;7231;59.370;18.016;2023-01-26T01:11:08;101207.03;;;4.07;100.00
14295;BME280;7231;59.370;18.016;2023-01-26T01:13:37;101253.78;;;4.37;100.00
14295;BME280;7231;59.370;18.016;2023-01-26T01:16:05;101262.47;;;4.37;100.00
14295;BME280;7231;59.370;18.016;2023-01-26T01:18:33;101269.53;;;4.40;100.00
14295;BME280;7231;59.370;18.016;2023-01-26T01:21:05;101252.69;;;4.33;100.00
14295;BME280;7231;59.370;18.016;2023-01-26T01:23:34;101246.78;;;4.36;100.00
14295;BME280;7231;59.370;18.016;2023-01-26T01:26:03;101217.31;;;4.20;100.00
14295;BME280;7231;59.370;18.016;2023-01-26T01:28:32;101261.91;;;4.43;100.00
14295;BME280;7231;59.370;18.016;2023-01-26T01:31:03;101260.13;;;4.42;100.00
14295;BME280;7231;59.370;18.016;2023-01-26T01:33:31;101259.31;;;4.43;100.00
14295;BME280;7231;59.370;18.016;2023-01-26T01:36:00;101247.59;;;4.35;100.00
14295;BME280;7231;59.370;18.016;2023-01-26T01:38:29;101255.38;;;4.35;100.00
14295;BME280;7231;59.370;18.016;2023-01-26T01:40:58;101275.19;;;4.47;100.00
14295;BME280;7231;59.370;18.016;2023-01-26T01:43:27;101273.38;;;4.46;100.00
14295;BME280;7231;59.370;18.016;2023-01-26T01:45:55;101249.81;;;4.29;100.00
14295;BME280;7231;59.370;18.016;2023-01-26T01:48:29;101272.94;;;4.39;100.00
14295;BME280;7231;59.370;18.016;2023-01-26T01:51:03;101275.44;;;4.37;100.00
14295;BME280;7231;59.370;18.016;2023-01-26T01:53:35;101277.13;;;4.37;100.00
14295;BME280;7231;59.370;18.016;2023-01-26T01:56:08;101280.63;;;4.37;100.00
14295;BME280;7231;59.370;18.016;2023-01-26T01:58:40;101263.69;;;4.29;100.00
14295;BME280;7231;59.370;18.016;2023-01-26T02:01:10;101284.13;;;4.38;100.00
14295;BME280;7231;59.370;18.016;2023-01-26T02:03:40;101279.47;;;4.32;100.00
14295;BME280;7231;59.370;18.016;2023-01-26T02:06:11;101301.41;;;4.37;100.00
14295;BME280;7231;59.370;18.016;2023-01-26T02:08:43;101240.75;;;4.07;100.00
14295;BME280;7231;59.370;18.016;2023-01-26T02:11:16;101279.56;;;4.34;100.00
14295;BME280;7231;59.370;18.016;2023-01-26T02:13:47;101278.84;;;4.36;100.00
14295;BME280;7231;59.370;18.016;2023-01-26T02:16:16;101226.00;;;4.06;100.00
14295;BME280;7231;59.370;18.016;2023-01-26T02:18:45;101275.72;;;4.42;100.00
14295;BME280;7231;59.370;18.016;2023-01-26T02:21:15;101279.38;;;4.45;100.00
14295;BME280;7231;59.370;18.016;2023-01-26T02:23:56;101270.59;;;4.43;100.00
14295;BME280;7231;59.370;18.016;2023-01-26T02:26:32;101265.94;;;4.38;100.00
14295;BME280;7231;59.370;18.016;2023-01-26T02:29:02;101270.34;;;4.39;100.00
14295;BME280;7231;59.370;18.016;2023-01-26T02:31:31;101267.75;;;4.39;100.00
14295;BME280;7231;59.370;18.016;2023-01-26T02:33:59;101270.34;;;4.39;100.00
14295;BME280;7231;59.370;18.016;2023-01-26T02:36:29;101278.94;;;4.38;100.00
14295;BME280;7231;59.370;18.016;2023-01-26T02:39:11;101215.16;;;3.99;100.00
14295;BME280;7231;59.370;18.016;2023-01-26T02:41:44;101206.38;;;3.97;100.00
14295;BME280;7231;59.370;18.016;2023-01-26T02:44:31;101271.94;;;4.37;100.00
14295;BME280;7231;59.370;18.016;2023-01-26T02:46:59;101277.22;;;4.38;100.00
14295;BME280;7231;59.370;18.016;2023-01-26T02:49:27;101279.72;;;4.37;100.00
14295;BME280;7231;59.370;18.016;2023-01-26T02:52:13;101270.97;;;4.35;100.00
14295;BME280;7231;59.370;18.016;2023-01-26T02:54:41;101279.56;;;4.34;100.00
14295;BME280;7231;59.370;18.016;2023-01-26T02:57:28;101279.56;;;4.34;100.00
14295;BME280;7231;59.370;18.016;2023-01-26T02:59:56;101287.44;;;4.35;100.00
14295;BME280;7231;59.370;18.016;2023-01-26T03:02:24;101288.25;;;4.34;100.00
14295;BME280;7231;59.370;18.016;2023-01-26T03:04:52;101281.34;;;4.35;100.00
14295;BME280;7231;59.370;18.016;2023-01-26T03:07:20;101277.13;;;4.37;100.00
14295;BME280;7231;59.370;18.016;2023-01-26T03:09:48;101277.03;;;4.35;100.00
14295;BME280;7231;59.370;18.016;2023-01-26T03:12:16;101279.03;;;4.39;100.00
14295;BME280;7231;59.370;18.016;2023-01-26T03:14:45;101290.41;;;4.41;100.00
14295;BME280;7231;59.370;18.016;2023-01-26T03:17:33;101296.47;;;4.42;100.00
14295;BME280;7231;59.370;18.016;2023-01-26T03:20:02;101260.31;;;4.30;100.00
14295;BME280;7231;59.370;18.016;2023-01-26T03:22:48;101280.09;;;4.43;100.00
14295;BME280;7231;59.370;18.016;2023-01-26T03:25:33;101281.00;;;4.43;100.00
14295;BME280;7231;59.370;18.016;2023-01-26T03:28:20;101283.69;;;4.45;100.00
14295;BME280;7231;59.370;18.016;2023-01-26T03:30:51;101287.09;;;4.44;100.00
14295;BME280;7231;59.370;18.016;2023-01-26T03:33:20;101289.94;;;4.48;100.00
14295;BME280;7231;59.370;18.016;2023-01-26T03:35:51;101287.44;;;4.50;100.00
14295;BME280;7231;59.370;18.016;2023-01-26T03:38:20;101286.47;;;4.48;100.00
14295;BME280;7231;59.370;18.016;2023-01-26T03:40:48;101300.72;;;4.54;100.00
14295;BME280;7231;59.370;18.016;2023-01-26T03:43:33;101298.19;;;4.56;100.00
14295;BME280;7231;59.370;18.016;2023-01-26T03:46:20;101313.78;;;4.56;100.00
14295;BME280;7231;59.370;18.016;2023-01-26T03:49:05;101301.78;;;4.58;100.00
14295;BME280;7231;59.370;18.016;2023-01-26T03:51:50;101303.56;;;4.59;100.00
14295;BME280;7231;59.370;18.016;2023-01-26T03:54:36;101257.19;;;4.36;100.00
14295;BME280;7231;59.370;18.016;2023-01-26T03:57:21;101289.25;;;4.51;100.00
14295;BME280;7231;59.370;18.016;2023-01-26T03:59:49;101300.25;;;4.62;100.00
14295;BME280;7231;59.370;18.016;2023-01-26T04:02:19;101260.94;;;4.41;100.00
14295;BME280;7231;59.370;18.016;2023-01-26T04:05:05;101299.63;;;4.66;100.00
14295;BME280;7231;59.370;18.016;2023-01-26T04:07:50;101308.50;;;4.69;100.00
14295;BME280;7231;59.370;18.016;2023-01-26T04:10:36;101297.31;;;4.70;100.00
14295;BME280;7231;59.370;18.016;2023-01-26T04:13:04;101310.38;;;4.72;100.00
14295;BME280;7231;59.370;18.016;2023-01-26T04:15:49;101321.75;;;4.74;100.00
14295;BME280;7231;59.370;18.016;2023-01-26T04:18:36;101305.72;;;4.66;100.00
14295;BME280;7231;59.370;18.016;2023-01-26T04:21:22;101292.47;;;4.62;100.00
14295;BME280;7231;59.370;18.016;2023-01-26T04:23:58;101313.06;;;4.73;100.00
14295;BME280;7231;59.370;18.016;2023-01-26T04:26:28;101289.97;;;4.63;100.00
14295;BME280;7231;59.370;18.016;2023-01-26T04:29:00;101313.06;;;4.73;100.00
14295;BME280;7231;59.370;18.016;2023-01-26T04:31:29;101317.38;;;4.73;100.00
14295;BME280;7231;59.370;18.016;2023-01-26T04:33:59;101302.41;;;4.69;100.00
14295;BME280;7231;59.370;18.016;2023-01-26T04:36:27;101317.56;;;4.76;100.00
14295;BME280;7231;59.370;18.016;2023-01-26T04:38:55;101273.66;;;4.51;100.00
14295;BME280;7231;59.370;18.016;2023-01-26T04:41:23;101310.75;;;4.78;100.00
14295;BME280;7231;59.370;18.016;2023-01-26T04:43:51;101309.84;;;4.77;100.00
14295;BME280;7231;59.370;18.016;2023-01-26T04:46:19;101190.75;;;4.10;100.00
14295;BME280;7231;59.370;18.016;2023-01-26T04:48:47;101285.56;;;4.62;100.00
14295;BME280;7231;59.370;18.016;2023-01-26T04:51:19;101295.78;;;4.74;100.00
14295;BME280;7231;59.370;18.016;2023-01-26T04:53:48;101314.50;;;4.83;100.00
14295;BME280;7231;59.370;18.016;2023-01-26T04:56:20;101318.91;;;4.84;100.00
14295;BME280;7231;59.370;18.016;2023-01-26T04:58:49;101331.09;;;4.85;100.00
14295;BME280;7231;59.370;18.016;2023-01-26T05:01:16;101337.09;;;4.84;100.00
14295;BME280;7231;59.370;18.016;2023-01-26T05:03:45;101311.72;;;4.65;100.00
14295;BME280;7231;59.370;18.016;2023-01-26T05:06:14;101341.38;;;4.83;100.00
14295;BME280;7231;59.370;18.016;2023-01-26T05:08:43;101338.69;;;4.82;100.00
14295;BME280;7231;59.370;18.016;2023-01-26T05:11:11;101348.38;;;4.84;100.00
14295;BME280;7231;59.370;18.016;2023-01-26T05:13:39;101349.28;;;4.85;100.00
14295;BME280;7231;59.370;18.016;2023-01-26T05:16:07;101345.78;;;4.84;100.00
14295;BME280;7231;59.370;18.016;2023-01-26T05:18:39;101355.38;;;4.85;100.00
14295;BME280;7231;59.370;18.016;2023-01-26T05:21:09;101358.84;;;4.86;100.00
14295;BME280;7231;59.370;18.016;2023-01-26T05:23:37;101358.94;;;4.87;100.00
14295;BME280;7231;59.370;18.016;2023-01-26T05:26:07;101354.28;;;4.82;100.00
14295;BME280;7231;59.370;18.016;2023-01-26T05:28:35;101363.44;;;4.90;100.00
14295;BME280;7231;59.370;18.016;2023-01-26T05:31:04;101288.16;;;4.47;100.00
14295;BME280;7231;59.370;18.016;2023-01-26T05:33:32;101374.81;;;4.92;100.00
14295;BME280;7231;59.370;18.016;2023-01-26T05:36:03;101356.00;;;4.81;100.00
14295;BME280;7231;59.370;18.016;2023-01-26T05:38:32;101376.50;;;4.92;100.00
14295;BME280;7231;59.370;18.016;2023-01-26T05:41:01;101359.41;;;4.80;100.00
14295;BME280;7231;59.370;18.016;2023-01-26T05:43:30;101380.81;;;4.91;100.00
14295;BME280;7231;59.370;18.016;2023-01-26T05:45:58;101393.00;;;4.92;100.00
14295;BME280;7231;59.370;18.016;2023-01-26T05:48:26;101392.09;;;4.92;100.00
14295;BME280;7231;59.370;18.016;2023-01-26T05:50:55;101353.09;;;4.62;100.00
14295;BME280;7231;59.370;18.016;2023-01-26T05:53:23;101404.19;;;4.91;100.00
14295;BME280;7231;59.370;18.016;2023-01-26T05:55:51;101354.72;;;4.60;100.00
14295;BME280;7231;59.370;18.016;2023-01-26T05:58:19;101406.81;;;4.91;100.00
14295;BME280;7231;59.370;18.016;2023-01-26T06:00:49;101412.97;;;4.93;100.00
14295;BME280;7231;59.370;18.016;2023-01-26T06:03:17;101394.97;;;4.81;100.00
14295;BME280;7231;59.370;18.016;2023-01-26T06:05:51;101427.59;;;4.91;100.00
14295;BME280;7231;59.370;18.016;2023-01-26T06:08:19;101427.69;;;4.93;100.00
14295;BME280;7231;59.370;18.016;2023-01-26T06:10:47;101433.78;;;4.93;100.00
14295;BME280;7231;59.370;18.016;2023-01-26T06:13:15;101429.38;;;4.92;100.00
14295;BME280;7231;59.370;18.016;2023-01-26T06:15:43;101433.78;;;4.93;100.00
14295;BME280;7231;59.370;18.016;2023-01-26T06:18:12;101437.28;;;4.94;100.00
14295;BME280;7231;59.370;18.016;2023-01-26T06:20:40;101408.81;;;4.67;100.00
14295;BME280;7231;59.370;18.016;2023-01-26T06:23:10;101451.97;;;4.93;100.00
14295;BME280;7231;59.370;18.016;2023-01-26T06:25:38;101453.66;;;4.93;100.00
14295;BME280;7231;59.370;18.016;2023-01-26T06:28:06;101458.06;;;4.94;100.00
14295;BME280;7231;59.370;18.016;2023-01-26T06:30:34;101456.34;;;4.94;100.00
14295;BME280;7231;59.370;18.016;2023-01-26T06:33:02;101462.44;;;4.95;100.00
14295;BME280;7231;59.370;18.016;2023-01-26T06:35:33;101466.66;;;4.93;100.00
14295;BME280;7231;59.370;18.016;2023-01-26T06:38:02;101469.25;;;4.93;100.00
14295;BME280;7231;59.370;18.016;2023-01-26T06:40:30;101469.06;;;4.89;100.00
14295;BME280;7231;59.370;18.016;2023-01-26T06:42:58;101426.19;;;4.68;100.00
14295;BME280;7231;59.370;18.016;2023-01-26T06:45:26;101475.44;;;4.95;100.00
14295;BME280;7231;59.370;18.016;2023-01-26T06:47:54;101443.94;;;4.75;100.00
14295;BME280;7231;59.370;18.016;2023-01-26T06:50:25;101476.16;;;4.92;100.00
14295;BME280;7231;59.370;18.016;2023-01-26T06:53:02;101438.56;;;4.72;100.00
14295;BME280;7231;59.370;18.016;2023-01-26T06:55:33;101480.56;;;4.93;100.00
14295;BME280;7231;59.370;18.016;2023-01-26T06:58:03;101489.34;;;4.95;100.00
14295;BME280;7231;59.370;18.016;2023-01-26T07:00:30;101512.00;;;4.98;100.00
14295;BME280;7231;59.370;18.016;2023-01-26T07:02:58;101513.63;;;4.96;100.00
14295;BME280;7231;59.370;18.016;2023-01-26T07:05:26;101511.53;;;4.90;100.00
14295;BME280;7231;59.370;18.016;2023-01-26T07:07:54;101517.91;;;4.95;100.00
14295;BME280;7231;59.370;18.016;2023-01-26T07:10:23;101518.72;;;4.94;100.00
14295;BME280;7231;59.370;18.016;2023-01-26T07:12:51;101354.34;;;3.98;100.00
14295;BME280;7231;59.370;18.016;2023-01-26T07:15:19;101529.13;;;4.94;100.00
14295;BME280;7231;59.370;18.016;2023-01-26T07:17:47;101511.06;;;4.82;100.00
14295;BME280;7231;59.370;18.016;2023-01-26T07:20:15;101528.66;;;4.86;100.00
14295;BME280;7231;59.370;18.016;2023-01-26T07:22:43;101531.44;;;4.89;100.00
14295;BME280;7231;59.370;18.016;2023-01-26T07:25:11;101463.75;;;4.45;100.00
14295;BME280;7231;59.370;18.016;2023-01-26T07:27:41;101530.78;;;4.79;100.00
14295;BME280;7231;59.370;18.016;2023-01-26T07:30:11;101559.03;;;4.87;100.00
14295;BME280;7231;59.370;18.016;2023-01-26T07:32:40;101563.22;;;4.85;100.00
14295;BME280;7231;59.370;18.016;2023-01-26T07:35:08;101563.03;;;4.82;100.00
14295;BME280;7231;59.370;18.016;2023-01-26T07:37:36;101576.84;;;4.81;100.00
14295;BME280;7231;59.370;18.016;2023-01-26T07:40:05;101539.13;;;4.60;100.00
14295;BME280;7231;59.370;18.016;2023-01-26T07:42:33;101570.75;;;4.81;100.00
14295;BME280;7231;59.370;18.016;2023-01-26T07:45:02;101549.59;;;4.62;100.00
14295;BME280;7231;59.370;18.016;2023-01-26T07:47:30;101579.03;;;4.75;100.00
14295;BME280;7231;59.370;18.016;2023-01-26T07:49:58;101577.16;;;4.73;100.00
14295;BME280;7231;59.370;18.016;2023-01-26T07:52:26;101589.16;;;4.71;100.00
14295;BME280;7231;59.370;18.016;2023-01-26T07:54:54;101600.25;;;4.68;100.00
14295;BME280;7231;59.370;18.016;2023-01-26T07:57:22;101599.16;;;4.65;100.00
14295;BME280;7231;59.370;18.016;2023-01-26T07:59:50;101602.44;;;4.62;100.00
14295;BME280;7231;59.370;18.016;2023-01-26T08:02:19;101501.34;;;3.98;100.00
14295;BME280;7231;59.370;18.016;2023-01-26T08:04:47;101612.53;;;4.57;100.00
14295;BME280;7231;59.370;18.016;2023-01-26T08:07:15;101611.44;;;4.54;100.00
14295;BME280;7231;59.370;18.016;2023-01-26T08:09:44;101620.84;;;4.52;100.00
14295;BME280;7231;59.370;18.016;2023-01-26T08:12:12;101580.31;;;4.28;100.00
14295;BME280;7231;59.370;18.016;2023-01-26T08:14:40;101622.25;;;4.47;100.00
14295;BME280;7231;59.370;18.016;2023-01-26T08:17:12;101627.34;;;4.45;100.00
14295;BME280;7231;59.370;18.016;2023-01-26T08:19:45;101591.88;;;4.19;100.00
14295;BME280;7231;59.370;18.016;2023-01-26T08:22:13;101625.44;;;4.30;100.00
14295;BME280;7231;59.370;18.016;2023-01-26T08:24:41;101520.09;;;3.67;100.00
14295;BME280;7231;59.370;18.016;2023-01-26T08:27:09;101629.22;;;4.21;100.00
14295;BME280;7231;59.370;18.016;2023-01-26T08:29:37;101625.22;;;4.13;100.00
14295;BME280;7231;59.370;18.016;2023-01-26T08:32:05;101659.09;;;4.28;100.00
14295;BME280;7231;59.370;18.016;2023-01-26T08:34:34;101664.06;;;4.25;100.00
14295;BME280;7231;59.370;18.016;2023-01-26T08:37:03;101671.75;;;4.23;100.00
14295;BME280;7231;59.370;18.016;2023-01-26T08:39:31;101681.03;;;4.20;100.00
14295;BME280;7231;59.370;18.016;2023-01-26T08:41:59;101643.97;;;3.96;100.00
14295;BME280;7231;59.370;18.016;2023-01-26T08:44:27;101680.03;;;4.18;100.00
14295;BME280;7231;59.370;18.016;2023-01-26T08:46:54;101686.81;;;4.16;100.00
14295;BME280;7231;59.370;18.016;2023-01-26T08:49:22;101670.53;;;4.05;100.00
14295;BME280;7231;59.370;18.016;2023-01-26T08:51:50;101681.63;;;4.16;100.00
14295;BME280;7231;59.370;18.016;2023-01-26T08:54:20;101698.91;;;4.15;100.00
14295;BME280;7231;59.370;18.016;2023-01-26T08:56:48;101698.09;;;4.16;100.00
14295;BME280;7231;59.370;18.016;2023-01-26T08:59:16;101698.91;;;4.15;100.00
14295;BME280;7231;59.370;18.016;2023-01-26T09:01:44;101710.19;;;4.16;100.00
14295;BME280;7231;59.370;18.016;2023-01-26T09:04:12;101632.63;;;3.69;100.00
14295;BME280;7231;59.370;18.016;2023-01-26T09:06:40;101714.47;;;4.15;100.00
14295;BME280;7231;59.370;18.016;2023-01-26T09:09:08;101712.88;;;4.17;100.00
14295;BME280;7231;59.370;18.016;2023-01-26T09:11:40;101720.56;;;4.16;100.00
14295;BME280;7231;59.370;18.016;2023-01-26T09:14:08;101728.25;;;4.14;100.00
14295;BME280;7231;59.370;18.016;2023-01-26T09:16:36;101723.25;;;4.17;100.00
14295;BME280;7231;59.370;18.016;2023-01-26T09:19:04;101727.06;;;4.22;100.00
14295;BME280;7231;59.370;18.016;2023-01-26T09:21:32;101730.88;;;4.28;100.00
14295;BME280;7231;59.370;18.016;2023-01-26T09:24:00;101728.38;;;4.29;100.00
14295;BME280;7231;59.370;18.016;2023-01-26T09:26:28;101734.69;;;4.33;100.00
14295;BME280;7231;59.370;18.016;2023-01-26T09:28:58;101740.06;;;4.36;100.00
14295;BME280;7231;59.370;18.016;2023-01-26T09:31:25;101738.59;;;4.39;100.00
14295;BME280;7231;59.370;18.016;2023-01-26T09:33:54;101725.19;;;4.33;100.00
14295;BME280;7231;59.370;18.016;2023-01-26T09:36:21;101722.00;;;4.37;100.00
14295;BME280;7231;59.370;18.016;2023-01-26T09:38:49;101745.09;;;4.46;100.00
14295;BME280;7231;59.370;18.016;2023-01-26T09:41:32;101691.22;;;4.17;100.00
14295;BME280;7231;59.370;18.016;2023-01-26T09:44:08;101749.09;;;4.54;100.00
14295;BME280;7231;59.370;18.016;2023-01-26T09:46:44;101762.28;;;4.57;100.00
14295;BME280;7231;59.370;18.016;2023-01-26T09:49:20;101759.00;;;4.60;100.00
14295;BME280;7231;59.370;18.016;2023-01-26T09:51:55;101756.69;;;4.64;100.00
14295;BME280;7231;59.370;18.016;2023-01-26T09:54:31;101759.41;;;4.66;100.00
14295;BME280;7231;59.370;18.016;2023-01-26T09:57:10;101758.81;;;4.70;100.00
14295;BME280;7231;59.370;18.016;2023-01-26T09:59:45;101745.63;;;4.67;100.00
14295;BME280;7231;59.370;18.016;2023-01-26T10:02:22;101772.59;;;4.82;100.00
14295;BME280;7231;59.370;18.016;2023-01-26T10:04:56;101775.50;;;4.86;100.00
14295;BME280;7231;59.370;18.016;2023-01-26T10:07:25;101772.31;;;5.04;100.00
14295;BME280;7231;59.370;18.016;2023-01-26T10:09:53;101778.94;;;5.40;100.00
14295;BME280;7231;59.370;18.016;2023-01-26T10:12:23;101792.69;;;5.65;100.00
14295;BME280;7231;59.370;18.016;2023-01-26T10:14:58;101796.97;;;5.91;100.00
14295;BME280;7231;59.370;18.016;2023-01-26T10:17:31;101737.56;;;5.85;100.00
14295;BME280;7231;59.370;18.016;2023-01-26T10:20:04;101800.81;;;6.26;100.00
14295;BME280;7231;59.370;18.016;2023-01-26T10:22:38;101802.53;;;6.25;100.00
14295;BME280;7231;59.370;18.016;2023-01-26T10:25:15;101813.84;;;6.26;100.00
14295;BME280;7231;59.370;18.016;2023-01-26T10:27:44;101819.22;;;6.29;100.00
14295;BME280;7231;59.370;18.016;2023-01-26T10:30:15;101810.53;;;6.43;100.00
14295;BME280;7231;59.370;18.016;2023-01-26T10:32:45;101823.16;;;6.65;100.00
14295;BME280;7231;59.370;18.016;2023-01-26T10:35:17;101818.22;;;6.84;100.00
14295;BME280;7231;59.370;18.016;2023-01-26T10:37:46;101782.88;;;6.74;100.00
14295;BME280;7231;59.370;18.016;2023-01-26T10:40:15;101778.22;;;6.83;100.00
14295;BME280;7231;59.370;18.016;2023-01-26T10:42:54;101827.09;;;7.17;100.00
14295;BME280;7231;59.370;18.016;2023-01-26T10:45:26;101833.72;;;7.27;100.00
14295;BME280;7231;59.370;18.016;2023-01-26T10:48:04;101843.28;;;7.11;98.79
14295;BME280;7231;59.370;18.016;2023-01-26T10:50:33;101839.34;;;6.89;97.41
14295;BME280;7231;59.370;18.016;2023-01-26T10:53:03;101810.91;;;6.34;94.85
14295;BME280;7231;59.370;18.016;2023-01-26T10:55:32;101849.88;;;6.33;94.24
14295;BME280;7231;59.370;18.016;2023-01-26T10:58:01;101846.75;;;6.10;93.35
14295;BME280;7231;59.370;18.016;2023-01-26T11:00:32;101828.59;;;5.71;92.89
14295;BME280;7231;59.370;18.016;2023-01-26T11:03:05;101855.16;;;5.65;92.25
14295;BME280;7231;59.370;18.016;2023-01-26T11:05:42;101863.06;;;5.40;91.42
14295;BME280;7231;59.370;18.016;2023-01-26T11:08:31;101818.88;;;4.87;91.63
14295;BME280;7231;59.370;18.016;2023-01-26T11:11:02;101882.59;;;5.07;91.96
14295;BME280;7231;59.370;18.016;2023-01-26T11:13:30;101843.16;;;4.75;91.31
14295;BME280;7231;59.370;18.016;2023-01-26T11:16:07;101889.06;;;4.87;90.92
14295;BME280;7231;59.370;18.016;2023-01-26T11:18:42;101828.88;;;4.43;91.12
14295;BME280;7231;59.370;18.016;2023-01-26T11:21:14;101885.91;;;4.67;91.09
14295;BME280;7231;59.370;18.016;2023-01-26T11:24:03;101886.97;;;4.57;90.57
14295;BME280;7231;59.370;18.016;2023-01-26T11:26:58;101896.72;;;4.48;91.07
14295;BME280;7231;59.370;18.016;2023-01-26T11:29:40;101876.25;;;4.28;91.23
14295;BME280;7231;59.370;18.016;2023-01-26T11:32:19;101895.44;;;4.30;91.23
14295;BME280;7231;59.370;18.016;2023-01-26T11:34:59;101903.00;;;4.27;91.31
14295;BME280;7231;59.370;18.016;2023-01-26T11:37:40;101888.97;;;4.11;91.19
14295;BME280;7231;59.370;18.016;2023-01-26T11:40:21;101895.06;;;4.12;91.33
14295;BME280;7231;59.370;18.016;2023-01-26T11:43:03;101913.75;;;4.19;91.14
14295;BME280;7231;59.370;18.016;2023-01-26T11:45:38;101819.59;;;3.61;91.16
14295;BME280;7231;59.370;18.016;2023-01-26T11:48:21;101918.53;;;4.13;91.23
14295;BME280;7231;59.370;18.016;2023-01-26T11:50:54;101913.22;;;4.12;91.45
14295;BME280;7231;59.370;18.016;2023-01-26T11:53:33;101892.59;;;4.02;91.32
14295;BME280;7231;59.370;18.016;2023-01-26T11:56:24;101924.50;;;4.12;90.85
14295;BME280;7231;59.370;18.016;2023-01-26T11:59:01;101915.13;;;4.14;90.99
14295;BME280;7231;59.370;18.016;2023-01-26T12:01:34;101907.66;;;4.19;90.65
14295;BME280;7231;59.370;18.016;2023-01-26T12:04:04;101920.88;;;4.22;91.04
14295;BME280;7231;59.370;18.016;2023-01-26T12:06:36;101925.38;;;4.24;90.21
14295;BME280;7231;59.370;18.016;2023-01-26T12:09:06;101928.41;;;4.31;90.56
14295;BME280;7231;59.370;18.016;2023-01-26T12:11:49;101930.06;;;4.42;90.32
14295;BME280;7231;59.370;18.016;2023-01-26T12:14:24;101931.13;;;4.57;90.68
14295;BME280;7231;59.370;18.016;2023-01-26T12:17:23;101932.00;;;4.82;90.37
14295;BME280;7231;59.370;18.016;2023-01-26T12:19:57;101934.06;;;5.00;90.23
14295;BME280;7231;59.370;18.016;2023-01-26T12:22:32;101927.09;;;5.12;89.63
14295;BME280;7231;59.370;18.016;2023-01-26T12:25:13;101923.78;;;5.41;89.12
14295;BME280;7231;59.370;18.016;2023-01-26T12:27:49;101930.81;;;5.68;88.67
14295;BME280;7231;59.370;18.016;2023-01-26T12:30:33;101925.41;;;5.92;87.76
14295;BME280;7231;59.370;18.016;2023-01-26T12:33:03;101936.13;;;5.96;87.17
14295;BME280;7231;59.370;18.016;2023-01-26T12:35:56;101931.19;;;6.01;86.07
14295;BME280;7231;59.370;18.016;2023-01-26T12:38:35;101946.72;;;5.99;85.17
14295;BME280;7231;59.370;18.016;2023-01-26T12:41:11;101938.91;;;5.86;84.26
14295;BME280;7231;59.370;18.016;2023-01-26T12:43:52;101828.41;;;5.13;84.58
14295;BME280;7231;59.370;18.016;2023-01-26T12:46:24;101943.41;;;5.88;85.46
14295;BME280;7231;59.370;18.016;2023-01-26T12:48:57;101904.97;;;5.84;84.41
14295;BME280;7231;59.370;18.016;2023-01-26T12:51:33;101945.38;;;6.19;83.58
14295;BME280;7231;59.370;18.016;2023-01-26T12:54:06;101953.84;;;6.43;82.86
14295;BME280;7231;59.370;18.016;2023-01-26T12:56:41;101910.59;;;6.32;81.51
14295;BME280;7231;59.370;18.016;2023-01-26T12:59:15;101958.16;;;6.70;80.09
14295;BME280;7231;59.370;18.016;2023-01-26T13:02:10;101915.84;;;6.18;79.14
14295;BME280;7231;59.370;18.016;2023-01-26T13:04:48;101936.72;;;5.92;79.81
14295;BME280;7231;59.370;18.016;2023-01-26T13:07:30;101983.34;;;5.76;79.19
14295;BME280;7231;59.370;18.016;2023-01-26T13:10:26;101988.81;;;5.41;79.28
14295;BME280;7231;59.370;18.016;2023-01-26T13:12:57;101993.56;;;5.21;80.18
14295;BME280;7231;59.370;18.016;2023-01-26T13:15:27;101994.97;;;5.03;79.74
14295;BME280;7231;59.370;18.016;2023-01-26T13:17:58;102004.09;;;4.85;80.09